Time;durP1;ratioP1;P1;durP2;ratioP2;P2;SDS_P1;SDS_P2;PMS_P1;PMS_P2;Temp;Humidity;BMP_temperature;BMP_pressure;BME280_temperature;BME280_humidity;BME280_pressure;Samples;Min_cycle;Max_cycle;Signal;HPM_P1;HPM_P2
2023/06/07 00:00:41;;;;;;;3.42;2.62;;;;;;;20.80;41.79;99260.25;7351417;39;20419;31
2023/06/07 00:11:21;;;;;;;3.40;2.63;;;;;;;20.29;44.11;99254.31;7283640;40;20354;31
2023/06/07 00:21:44;;;;;;;4.40;2.80;;;;;;;20.24;45.60;99255.84;7300981;39;21291;31
2023/06/07 00:32:21;;;;;;;3.80;2.50;;;;;;;20.30;45.04;99253.31;7307276;39;20266;31
2023/06/07 00:37:53;;;;;;;3.45;2.75;;;;;;;20.24;45.22;99249.53;7337227;39;20364;31
2023/06/07 00:43:10;;;;;;;5.53;2.80;;;;;;;20.31;45.20;99255.00;7325267;39;21233;31
2023/06/07 00:48:46;;;;;;;5.45;2.55;;;;;;;20.22;45.44;99238.00;7293320;40;20299;31
2023/06/07 00:54:18;;;;;;;3.08;2.65;;;;;;;20.02;46.57;99245.56;7247854;40;21187;31
2023/06/07 00:59:50;;;;;;;4.10;2.70;;;;;;;19.62;46.85;99245.94;7264002;40;21216;31
2023/06/07 01:05:24;;;;;;;3.80;2.50;;;;;;;19.27;48.47;99242.81;7265127;39;21166;31
2023/06/07 01:10:56;;;;;;;3.90;2.70;;;;;;;19.31;47.75;99243.22;7245802;40;20276;31
2023/06/07 01:16:31;;;;;;;4.30;2.90;;;;;;;19.28;47.85;99236.31;7228323;40;20340;31
2023/06/07 01:22:08;;;;;;;3.45;2.85;;;;;;;18.94;49.46;99244.09;7237270;40;21307;31
2023/06/07 01:27:43;;;;;;;5.47;2.67;;;;;;;18.80;49.34;99237.88;7296705;39;21398;31
2023/06/07 01:33:13;;;;;;;5.45;2.90;;;;;;;18.66;49.03;99239.84;7255429;40;21253;31
2023/06/07 01:38:46;;;;;;;4.30;2.80;;;;;;;18.79;49.33;99233.47;7220530;40;21361;31
2023/06/07 01:44:23;;;;;;;5.05;2.95;;;;;;;18.87;48.83;99220.38;7264279;39;20264;31
2023/06/07 01:55:00;;;;;;;5.45;3.00;;;;;;;18.62;50.26;99230.41;7246851;40;20362;31
2023/06/07 02:06:40;;;;;;;4.00;2.80;;;;;;;18.18;51.55;99228.44;7254242;40;20265;31
2023/06/07 02:16:59;;;;;;;3.43;3.13;;;;;;;18.17;50.87;99228.66;7317521;39;20268;31
2023/06/07 02:22:32;;;;;;;3.05;2.45;;;;;;;17.92;53.14;99221.19;7305037;39;20371;31
2023/06/07 02:33:13;;;;;;;3.10;2.60;;;;;;;17.69;52.41;99222.69;7354747;39;20392;31
2023/06/07 02:38:42;;;;;;;5.63;3.03;;;;;;;17.62;53.54;99225.44;7255592;40;21409;31
2023/06/07 02:44:14;;;;;;;4.80;3.10;;;;;;;17.54;52.55;99228.34;7272267;40;20453;31
2023/06/07 02:49:34;;;;;;;4.93;3.17;;;;;;;17.50;53.50;99224.37;7278636;40;21315;31
2023/06/07 02:55:21;;;;;;;3.25;2.80;;;;;;;17.25;54.66;99226.84;7321006;39;20264;31
2023/06/07 03:00:39;;;;;;;4.40;2.93;;;;;;;17.13;53.32;99237.53;7254848;39;21382;31
2023/06/07 03:05:59;;;;;;;3.80;3.00;;;;;;;16.98;54.34;99238.78;7239991;40;21351;31
2023/06/07 03:11:27;;;;;;;5.50;3.00;;;;;;;16.71;56.08;99235.16;7225507;40;20314;31
2023/06/07 03:17:02;;;;;;;3.97;2.87;;;;;;;16.68;55.65;99246.44;7263547;40;20272;31
2023/06/07 03:22:36;;;;;;;6.05;3.05;;;;;;;16.60;56.42;99239.31;7219532;40;21285;31
2023/06/07 03:28:08;;;;;;;3.20;2.77;;;;;;;16.75;56.27;99241.88;7232897;40;21453;31
2023/06/07 03:33:29;;;;;;;5.75;2.90;;;;;;;17.01;55.00;99244.66;7256630;40;20440;31
2023/06/07 03:38:46;;;;;;;7.00;2.90;;;;;;;16.92;55.67;99239.59;7255381;40;21201;31
2023/06/07 03:44:17;;;;;;;3.80;2.80;;;;;;;16.96;54.89;99244.44;7264796;39;21321;31
2023/06/07 03:49:38;;;;;;;5.40;2.85;;;;;;;17.06;55.59;99242.16;7246925;40;21465;31
2023/06/07 03:54:56;;;;;;;3.60;3.20;;;;;;;17.05;55.18;99251.38;7297596;39;21283;31
2023/06/07 04:00:30;;;;;;;3.05;2.75;;;;;;;16.87;55.97;99248.38;7298645;39;20394;31
2023/06/07 04:06:00;;;;;;;5.00;2.80;;;;;;;17.09;55.94;99257.22;7326146;39;20397;31
2023/06/07 04:11:32;;;;;;;4.30;2.90;;;;;;;17.10;55.30;99254.31;7337989;39;21205;31
2023/06/07 04:17:08;;;;;;;3.10;2.70;;;;;;;16.86;56.18;99251.31;7283828;40;21192;31
2023/06/07 04:22:26;;;;;;;3.50;2.80;;;;;;;16.92;55.92;99248.63;7078333;40;20333;31
2023/06/07 04:27:59;;;;;;;4.20;2.70;;;;;;;17.02;57.40;99243.62;7260277;40;21447;31
2023/06/07 04:33:32;;;;;;;3.50;2.60;;;;;;;17.05;57.39;99245.91;7282096;40;21266;31
2023/06/07 04:39:06;;;;;;;5.37;2.90;;;;;;;17.25;56.74;99243.19;7303139;39;21474;31
2023/06/07 04:44:28;;;;;;;3.50;3.20;;;;;;;17.27;57.00;99243.00;7299001;39;20381;31
2023/06/07 04:50:03;;;;;;;3.00;2.70;;;;;;;17.22;57.18;99242.78;7313875;39;21297;31
2023/06/07 05:00:39;;;;;;;3.45;2.90;;;;;;;17.44;56.78;99264.19;7303213;39;20265;31
2023/06/07 05:11:15;;;;;;;6.05;3.05;;;;;;;17.74;57.30;99258.31;7282593;39;20287;31
2023/06/07 05:21:40;;;;;;;3.00;2.70;;;;;;;18.21;56.29;99255.31;7344873;39;20318;31
2023/06/07 05:32:16;;;;;;;3.37;3.07;;;;;;;18.46;56.25;99250.00;7330673;39;20271;31
2023/06/07 05:42:56;;;;;;;3.30;3.00;;;;;;;18.63;56.44;99251.19;7338170;39;20267;31
2023/06/07 05:48:28;;;;;;;6.43;3.27;;;;;;;18.90;55.06;99236.34;7323962;39;20323;31
2023/06/07 05:53:45;;;;;;;5.13;3.23;;;;;;;19.09;54.27;99245.47;7257902;40;21272;31
2023/06/07 05:59:18;;;;;;;5.57;3.10;;;;;;;19.28;53.96;99251.88;7196225;40;21259;31
2023/06/07 06:04:52;;;;;;;7.27;3.17;;;;;;;19.48;53.82;99244.41;7208497;40;21280;31
2023/06/07 06:10:40;;;;;;;5.40;3.30;;;;;;;19.64;54.53;99245.72;7264634;40;20292;31
2023/06/07 06:15:57;;;;;;;5.57;3.70;;;;;;;19.82;53.28;99253.97;7243608;40;21204;31
2023/06/07 06:21:29;;;;;;;4.63;3.07;;;;;;;19.95;54.02;99245.66;7253930;40;21246;31
2023/06/07 06:26:46;;;;;;;3.80;3.10;;;;;;;20.16;54.74;99252.56;7255945;39;20319;31
2023/06/07 06:32:20;;;;;;;5.07;3.57;;;;;;;20.38;53.38;99244.78;7326093;39;21263;31
2023/06/07 06:37:53;;;;;;;3.90;2.80;;;;;;;20.60;53.87;99255.03;7337982;39;21315;31
2023/06/07 06:43:25;;;;;;;5.57;3.17;;;;;;;20.75;53.71;99251.06;7329505;39;21383;31
2023/06/07 06:48:42;;;;;;;3.90;3.07;;;;;;;20.91;53.45;99262.22;7299591;39;20249;31
2023/06/07 06:54:16;;;;;;;7.90;3.23;;;;;;;20.98;53.31;99268.44;7334103;39;21198;31
2023/06/07 06:59:34;;;;;;;3.90;3.35;;;;;;;21.20;53.87;99257.81;7284908;39;21265;31
2023/06/07 07:04:50;;;;;;;5.43;3.40;;;;;;;21.36;53.15;99265.41;7275096;40;20245;31
2023/06/07 07:15:28;;;;;;;4.87;3.73;;;;;;;21.65;53.65;99262.81;7317472;39;20283;31
2023/06/07 07:25:47;;;;;;;4.47;3.97;;;;;;;21.87;52.79;99266.66;7295983;40;20252;31
2023/06/07 07:36:21;;;;;;;5.63;3.47;;;;;;;22.12;52.14;99258.22;7336784;39;20338;31
2023/06/07 07:41:53;;;;;;;5.30;3.30;;;;;;;22.33;52.33;99263.09;7317054;39;21276;31
2023/06/07 07:47:14;;;;;;;3.63;2.93;;;;;;;22.52;51.69;99263.78;7270035;39;21233;31
2023/06/07 07:52:53;;;;;;;7.05;3.30;;;;;;;22.70;50.36;99263.63;7255332;40;21288;31
2023/06/07 08:03:13;;;;;;;5.03;3.15;;;;;;;22.95;50.40;99258.66;7254681;39;20423;31
2023/06/07 08:13:54;;;;;;;4.20;3.80;;;;;;;23.00;52.19;99260.66;7322363;39;20282;31
2023/06/07 08:19:27;;;;;;;6.70;3.50;;;;;;;23.21;50.45;99255.31;7380541;39;21309;31
2023/06/07 08:24:44;;;;;;;4.20;3.20;;;;;;;23.38;50.62;99251.75;7316214;39;21304;31
2023/06/07 08:30:17;;;;;;;4.45;3.17;;;;;;;23.66;50.08;99266.31;7297232;40;21509;31
2023/06/07 08:35:49;;;;;;;3.40;3.10;;;;;;;23.83;50.06;99251.75;7255979;40;21273;31
2023/06/07 08:41:24;;;;;;;4.50;3.20;;;;;;;24.06;49.55;99257.03;7275360;40;21300;31
2023/06/07 08:52:02;;;;;;;3.20;2.90;;;;;;;23.92;49.30;99245.53;7212257;40;20422;31
2023/06/07 08:57:34;;;;;;;4.15;3.17;;;;;;;24.16;48.63;99249.81;7239674;40;21237;31
2023/06/07 09:03:06;;;;;;;2.90;2.60;;;;;;;24.27;48.26;99258.19;7235969;40;21285;31
2023/06/07 09:08:39;;;;;;;3.67;2.90;;;;;;;24.29;48.80;99258.78;7275299;39;20535;31
2023/06/07 09:14:14;;;;;;;3.17;2.90;;;;;;;24.54;47.84;99250.84;7230070;40;21418;31
2023/06/07 09:19:50;;;;;;;3.12;2.83;;;;;;;24.74;47.25;99262.16;7274132;39;20233;31
2023/06/07 09:25:28;;;;;;;3.42;3.12;;;;;;;24.69;46.87;99256.56;7281643;39;20267;31
2023/06/07 09:31:06;;;;;;;4.25;2.90;;;;;;;24.61;47.74;99246.00;7257388;39;20279;31
2023/06/07 09:36:38;;;;;;;4.50;3.40;;;;;;;24.91;47.09;99257.44;7240050;40;21175;31
2023/06/07 09:42:14;;;;;;;4.93;3.42;;;;;;;25.08;46.73;99254.59;7266440;40;21323;31
2023/06/07 09:47:46;;;;;;;4.72;3.65;;;;;;;24.91;46.45;99257.44;7254257;40;21232;31
2023/06/07 09:53:04;;;;;;;5.05;3.25;;;;;;;25.43;46.19;99251.34;7254598;40;21337;31
2023/06/07 09:58:36;;;;;;;3.20;2.90;;;;;;;25.64;45.53;99247.72;7317511;39;21344;31
2023/06/07 10:03:53;;;;;;;6.55;3.50;;;;;;;25.87;44.87;99252.03;7288557;39;20372;31
2023/06/07 10:09:22;;;;;;;4.00;3.30;;;;;;;25.64;46.10;99247.72;7396247;39;21285;31
2023/06/07 10:14:56;;;;;;;4.45;3.60;;;;;;;25.76;45.40;99234.53;7363711;39;21194;31
2023/06/07 10:20:33;;;;;;;5.70;3.65;;;;;;;25.90;44.98;99227.47;7299500;39;21170;31
2023/06/07 10:26:07;;;;;;;3.90;3.00;;;;;;;25.93;44.76;99226.13;7314441;39;21245;31
2023/06/07 10:31:42;;;;;;;4.47;3.42;;;;;;;25.96;43.92;99218.13;7229620;39;21155;31
2023/06/07 10:37:14;;;;;;;4.95;3.70;;;;;;;26.27;44.01;99230.25;7255536;39;21182;31
2023/06/07 10:42:50;;;;;;;4.40;3.40;;;;;;;26.23;42.94;99212.53;7210302;40;21248;31
2023/06/07 10:48:47;;;;;;;3.40;3.10;;;;;;;26.04;43.87;99219.56;7223835;40;21312;31
2023/06/07 10:54:22;;;;;;;3.40;2.90;;;;;;;26.35;42.66;99207.63;7228761;40;21440;31
2023/06/07 10:59:58;;;;;;;3.50;3.20;;;;;;;26.38;42.57;99215.34;7256032;40;21215;31
2023/06/07 11:05:30;;;;;;;3.60;3.05;;;;;;;26.38;42.41;99209.00;7255859;40;21262;31
2023/06/07 11:11:03;;;;;;;3.40;3.10;;;;;;;26.71;41.84;99194.78;7235816;40;21168;31
2023/06/07 11:16:49;;;;;;;4.60;2.87;;;;;;;26.76;40.18;99203.09;7023113;40;20223;31
2023/06/07 11:22:31;;;;;;;4.23;2.50;;;;;;;26.97;40.67;99203.16;7233563;40;21273;31
2023/06/07 11:28:06;;;;;;;3.70;2.77;;;;;;;27.26;40.87;99187.72;7164079;40;21232;31
2023/06/07 11:33:38;;;;;;;3.80;3.10;;;;;;;27.43;39.49;99187.44;7190179;40;21213;31
2023/06/07 11:39:17;;;;;;;3.63;3.30;;;;;;;27.40;40.61;99188.84;7248680;39;21391;31
2023/06/07 11:44:49;;;;;;;3.40;3.00;;;;;;;27.65;38.78;99193.56;7262048;40;21380;31
2023/06/07 11:50:10;;;;;;;3.20;2.90;;;;;;;27.74;39.11;99180.81;7242136;40;21264;31
2023/06/07 11:55:46;;;;;;;3.18;2.88;;;;;;;27.71;38.66;99184.16;7252492;40;21170;31
2023/06/07 12:01:18;;;;;;;3.75;2.83;;;;;;;27.19;39.58;99176.09;7229441;40;21365;31
2023/06/07 12:06:51;;;;;;;7.10;3.30;;;;;;;27.51;38.02;99173.09;7305138;39;21264;31
2023/06/07 12:12:31;;;;;;;3.53;2.72;;;;;;;27.64;37.76;99153.97;7253372;40;21292;31
2023/06/07 12:18:04;;;;;;;4.15;3.75;;;;;;;27.30;39.80;99161.13;7257137;40;21315;31
2023/06/07 12:23:22;;;;;;;3.80;3.40;;;;;;;27.03;39.98;99166.12;7258689;40;20250;31
2023/06/07 12:28:53;;;;;;;4.35;3.35;;;;;;;27.34;39.51;99154.75;7316449;39;21214;31
2023/06/07 12:34:11;;;;;;;4.95;3.30;;;;;;;27.88;39.45;99154.19;7321526;39;20352;31
2023/06/07 12:39:31;;;;;;;3.50;3.20;;;;;;;27.79;37.00;99148.41;7321615;39;20253;31
2023/06/07 12:45:05;;;;;;;3.55;3.25;;;;;;;27.93;37.71;99143.09;7277725;40;20361;31
2023/06/07 12:50:22;;;;;;;4.23;3.12;;;;;;;27.57;38.83;99136.78;7238713;40;21240;31
2023/06/07 12:55:42;;;;;;;3.55;3.25;;;;;;;27.30;38.72;99134.28;7267010;39;21337;31
2023/06/07 13:01:19;;;;;;;4.30;3.60;;;;;;;27.60;38.56;99136.22;7260335;40;21305;31
2023/06/07 13:12:30;;;;;;;5.30;2.90;;;;;;;27.92;37.96;99121.19;7189626;40;21237;31
2023/06/07 13:18:07;;;;;;;4.25;3.30;;;;;;;28.23;37.60;99111.72;7306845;39;21264;31
2023/06/07 13:23:24;;;;;;;5.10;3.00;;;;;;;28.55;37.31;99108.50;7287847;39;21308;31
2023/06/07 13:28:59;;;;;;;3.53;2.90;;;;;;;28.22;37.01;99096.19;7264482;40;20430;31
2023/06/07 13:34:36;;;;;;;5.45;3.00;;;;;;;28.31;37.85;99099.19;7294780;39;20350;31
2023/06/07 13:40:08;;;;;;;3.47;2.70;;;;;;;28.38;37.49;99096.94;7315059;39;20356;31
2023/06/07 13:45:43;;;;;;;3.83;2.85;;;;;;;28.20;36.96;99076.25;7252031;40;21369;31
2023/06/07 13:51:18;;;;;;;3.50;3.00;;;;;;;28.06;38.10;99075.16;7226403;40;20253;31
2023/06/07 13:56:35;;;;;;;3.20;2.90;;;;;;;27.86;37.96;99086.31;7236058;40;20466;31
2023/06/07 14:02:07;;;;;;;4.72;3.12;;;;;;;27.81;38.27;99076.09;7238418;40;21173;31
2023/06/07 14:07:43;;;;;;;5.43;2.75;;;;;;;27.92;38.56;99065.78;7258208;39;21292;31
2023/06/07 14:13:19;;;;;;;3.42;2.72;;;;;;;28.02;37.06;99060.22;7238119;40;21256;31
2023/06/07 14:18:37;;;;;;;3.55;2.80;;;;;;;28.23;36.41;99053.47;7265042;40;21284;31
2023/06/07 14:24:10;;;;;;;3.00;2.57;;;;;;;28.22;36.75;99046.28;7245630;40;21161;31
2023/06/07 14:29:46;;;;;;;3.90;2.33;;;;;;;28.32;36.98;99025.97;7324887;39;20371;31
2023/06/07 14:35:08;;;;;;;2.50;2.30;;;;;;;28.19;35.43;99030.22;7316874;39;21284;31
2023/06/07 14:40:44;;;;;;;4.43;2.58;;;;;;;28.31;36.02;99035.41;7242599;40;21285;31
2023/06/07 14:46:02;;;;;;;3.10;2.80;;;;;;;28.23;36.81;99037.69;7264760;40;21377;31
2023/06/07 14:51:23;;;;;;;2.97;2.50;;;;;;;28.42;37.25;99029.53;7244594;40;21243;31
2023/06/07 14:56:52;;;;;;;3.70;2.65;;;;;;;28.42;35.76;99021.22;7274886;39;21332;31
2023/06/07 15:02:24;;;;;;;3.10;2.50;;;;;;;28.40;35.98;99022.59;7301585;39;20264;31
2023/06/07 15:07:42;;;;;;;3.40;2.40;;;;;;;28.44;34.38;99013.41;7286372;39;20318;31
2023/06/07 15:13:15;;;;;;;3.25;2.40;;;;;;;28.11;35.34;99014.19;7301913;39;21270;31
2023/06/07 15:18:37;;;;;;;2.87;2.58;;;;;;;28.19;34.95;99016.34;7307938;39;20275;31
2023/06/07 15:24:11;;;;;;;2.85;2.58;;;;;;;28.31;35.44;99014.06;7252829;40;20327;31
2023/06/07 15:29:47;;;;;;;5.20;2.80;;;;;;;28.22;34.89;99011.06;7210990;40;20278;31
2023/06/07 15:35:08;;;;;;;2.67;2.40;;;;;;;28.12;36.54;99015.84;7184942;40;21314;31
2023/06/07 15:40:41;;;;;;;3.20;2.40;;;;;;;28.10;35.20;99012.53;7213804;40;21326;31
2023/06/07 15:46:17;;;;;;;3.25;2.60;;;;;;;28.25;34.68;99009.69;7281676;39;21316;31
2023/06/07 15:51:50;;;;;;;4.35;2.60;;;;;;;28.22;35.63;98994.44;7298820;39;20258;31
2023/06/07 15:57:22;;;;;;;5.03;2.60;;;;;;;28.39;34.48;98988.50;7296313;40;21214;31
2023/06/07 16:02:52;;;;;;;2.72;2.33;;;;;;;28.53;34.16;98989.50;7227719;40;21369;31
2023/06/07 16:08:24;;;;;;;2.78;2.43;;;;;;;28.35;34.50;98978.25;7248558;40;21210;31
2023/06/07 16:13:46;;;;;;;2.77;2.40;;;;;;;28.28;35.08;98975.00;7242304;40;21090;31
2023/06/07 16:19:18;;;;;;;4.45;2.30;;;;;;;28.19;34.81;98972.84;7300405;39;21268;31
2023/06/07 16:24:54;;;;;;;5.47;2.35;;;;;;;28.16;34.65;98970.66;7307829;39;21217;31
2023/06/07 16:30:15;;;;;;;4.85;2.50;;;;;;;28.12;35.38;98982.59;7296720;39;21416;31
2023/06/07 16:35:48;;;;;;;2.90;2.40;;;;;;;28.07;35.45;98975.09;7309761;39;21502;31
2023/06/07 16:41:21;;;;;;;3.45;2.70;;;;;;;28.20;35.81;98974.50;7255722;40;21192;31
2023/06/07 16:46:56;;;;;;;2.97;2.40;;;;;;;28.08;34.73;98970.38;7271061;39;20275;31
2023/06/07 16:52:32;;;;;;;2.90;2.20;;;;;;;27.88;35.71;98965.78;7253204;40;20374;31
2023/06/07 16:57:52;;;;;;;4.10;3.05;;;;;;;27.84;35.70;98966.63;7230700;40;21418;31
2023/06/07 17:03:09;;;;;;;2.40;2.20;;;;;;;27.62;35.40;98965.06;7236620;40;21302;31
2023/06/07 17:08:42;;;;;;;3.30;2.37;;;;;;;27.46;36.54;98965.37;7232831;40;21244;31
2023/06/07 17:14:00;;;;;;;3.27;2.55;;;;;;;27.19;35.67;98962.97;7268044;39;21258;31
2023/06/07 17:19:20;;;;;;;2.40;2.20;;;;;;;27.05;36.29;98968.25;7311184;39;21299;31
2023/06/07 17:30:00;;;;;;;2.33;2.12;;;;;;;26.82;37.14;98964.09;7379275;39;20272;31
2023/06/07 17:35:18;;;;;;;2.30;2.10;;;;;;;26.68;36.95;98962.19;7357110;39;21339;31
2023/06/07 17:40:36;;;;;;;2.67;2.47;;;;;;;26.63;37.01;98964.94;7391508;39;21370;31
2023/06/07 17:46:10;;;;;;;2.83;2.53;;;;;;;26.57;37.45;98966.03;7380864;39;20267;31
2023/06/07 17:56:31;;;;;;;4.25;2.40;;;;;;;26.55;37.78;98963.53;7338246;39;20291;31
2023/06/07 18:02:05;;;;;;;2.80;2.37;;;;;;;26.36;37.99;98959.66;7194327;39;20249;31
2023/06/07 18:07:21;;;;;;;2.30;2.10;;;;;;;26.35;38.28;98961.59;7396892;39;20335;31
2023/06/07 18:12:38;;;;;;;3.20;2.50;;;;;;;26.21;38.21;98954.94;7336580;39;20264;31
2023/06/07 18:18:12;;;;;;;3.20;2.90;;;;;;;26.15;38.74;98955.19;7314782;39;21367;31
2023/06/07 18:23:32;;;;;;;2.45;2.25;;;;;;;26.08;38.80;98963.72;7263507;39;20266;31
2023/06/07 18:29:04;;;;;;;2.50;2.30;;;;;;;25.97;38.48;98968.41;7271099;39;21227;31
2023/06/07 18:34:38;;;;;;;2.78;2.58;;;;;;;25.90;39.13;98967.81;7305851;39;21396;31
2023/06/07 18:39:55;;;;;;;5.35;2.75;;;;;;;25.85;40.14;98966.97;7276237;39;21318;31
2023/06/07 18:45:13;;;;;;;2.90;2.60;;;;;;;25.68;41.39;98971.87;7277917;39;21417;31
2023/06/07 18:50:44;;;;;;;4.72;2.80;;;;;;;25.54;42.13;98974.31;7280700;39;21207;31
2023/06/07 18:56:19;;;;;;;3.03;2.57;;;;;;;25.43;42.09;98970.66;7210693;40;21324;31
2023/06/07 19:06:57;;;;;;;5.95;2.30;;;;;;;25.12;43.66;98966.06;7262766;40;20238;31
2023/06/07 19:12:14;;;;;;;4.30;2.50;;;;;;;24.93;43.00;98973.09;7251371;39;21366;31
2023/06/07 19:17:32;;;;;;;3.50;2.50;;;;;;;24.79;43.71;98978.22;7299507;39;21427;31
2023/06/07 19:23:05;;;;;;;6.75;2.80;;;;;;;24.53;43.91;98974.41;7277425;40;21258;31
2023/06/07 19:28:22;;;;;;;3.75;2.50;;;;;;;24.48;44.12;98973.53;7273304;39;21189;31
2023/06/07 19:33:39;;;;;;;3.90;2.70;;;;;;;24.32;44.50;98971.72;7284663;39;20246;31
2023/06/07 19:39:11;;;;;;;4.53;2.50;;;;;;;24.08;44.76;98973.94;7278319;39;20471;31
2023/06/07 19:44:47;;;;;;;20.25;3.53;;;;;;;23.90;45.73;98977.88;7225271;40;20362;31
2023/06/07 19:50:05;;;;;;;16.60;3.80;;;;;;;23.78;46.08;98988.22;7236476;40;21300;31
2023/06/07 19:55:36;;;;;;;18.80;3.83;;;;;;;23.47;46.99;98992.50;7220392;40;20324;31
2023/06/07 20:01:08;;;;;;;28.77;4.47;;;;;;;23.17;47.27;99003.84;7242537;40;21389;31
2023/06/07 20:06:25;;;;;;;11.20;3.20;;;;;;;23.26;46.33;99016.09;7205376;40;21188;31
2023/06/07 20:12:01;;;;;;;4.40;2.60;;;;;;;23.26;46.37;99021.59;7234125;40;21402;31
2023/06/07 20:17:36;;;;;;;4.70;2.80;;;;;;;23.25;46.72;99019.13;7243713;40;20463;31
2023/06/07 20:22:53;;;;;;;3.10;2.77;;;;;;;23.14;45.99;99031.03;7256831;39;21443;31
2023/06/07 20:28:25;;;;;;;5.50;3.10;;;;;;;23.00;47.01;99030.53;7284447;39;21311;31
2023/06/07 20:34:00;;;;;;;3.30;3.00;;;;;;;22.90;46.61;99035.91;7297314;39;21231;31
2023/06/07 20:39:18;;;;;;;6.30;3.30;;;;;;;22.81;47.83;99037.41;7246600;40;21315;31
2023/06/07 20:44:51;;;;;;;3.85;3.42;;;;;;;22.73;48.08;99024.87;7301480;39;20270;31
2023/06/07 20:50:26;;;;;;;4.00;3.50;;;;;;;22.64;48.59;99025.53;7221041;40;21261;31
2023/06/07 20:55:43;;;;;;;4.20;3.80;;;;;;;22.57;48.68;99027.59;7215060;40;21218;31
2023/06/07 21:01:19;;;;;;;3.97;3.67;;;;;;;22.50;49.17;99018.69;7224387;40;20254;31
2023/06/07 21:06:54;;;;;;;3.80;3.37;;;;;;;22.43;49.17;99025.16;7221490;40;20265;31
2023/06/07 21:17:34;;;;;;;5.57;3.92;;;;;;;22.33;49.87;99025.00;7262819;39;20397;31
2023/06/07 21:27:56;;;;;;;5.10;4.05;;;;;;;22.25;50.48;99030.84;7264978;40;20269;31
2023/06/07 21:33:30;;;;;;;4.57;4.10;;;;;;;22.09;51.68;99028.91;7296058;40;21286;31
2023/06/07 21:39:02;;;;;;;4.40;3.90;;;;;;;21.98;51.25;99030.63;7296372;39;21191;31
2023/06/07 21:44:34;;;;;;;6.90;4.40;;;;;;;21.93;51.64;99025.03;7338587;39;21391;31
2023/06/07 21:50:07;;;;;;;5.10;4.40;;;;;;;21.84;52.23;99020.16;7243415;40;21432;31
2023/06/07 21:55:39;;;;;;;4.47;4.07;;;;;;;21.82;52.72;99016.81;7254303;40;21409;31
2023/06/07 22:00:57;;;;;;;5.40;4.90;;;;;;;21.87;52.35;99025.97;7250377;40;21189;31
2023/06/07 22:06:30;;;;;;;5.80;4.60;;;;;;;21.78;53.29;99015.63;7255043;40;21212;31
2023/06/07 22:17:08;;;;;;;6.22;4.87;;;;;;;21.82;52.79;99016.81;7303791;39;20412;31
2023/06/07 22:22:40;;;;;;;6.22;5.10;;;;;;;21.69;53.65;99001.44;7316248;39;21243;31
2023/06/07 22:28:12;;;;;;;5.43;4.93;;;;;;;21.62;53.40;99009.00;7299479;39;20248;31
2023/06/07 22:33:44;;;;;;;5.20;4.80;;;;;;;21.59;53.56;99007.56;7279575;40;21299;31
2023/06/07 22:39:20;;;;;;;5.60;5.00;;;;;;;21.52;54.98;99006.03;7244622;40;21486;31
2023/06/07 22:44:53;;;;;;;5.90;5.40;;;;;;;21.48;55.11;99004.84;7253015;39;21243;31
2023/06/07 22:50:16;;;;;;;5.90;5.37;;;;;;;21.42;54.29;99005.81;7269422;39;21332;31
2023/06/07 22:55:52;;;;;;;5.75;4.97;;;;;;;21.38;55.22;99004.63;7279772;39;20251;31
2023/06/07 23:01:13;;;;;;;5.90;5.07;;;;;;;21.38;54.04;99005.47;7223182;40;21260;31
2023/06/07 23:06:32;;;;;;;5.82;5.22;;;;;;;21.37;54.03;99001.03;7267417;40;20341;31
2023/06/07 23:12:04;;;;;;;6.93;4.97;;;;;;;21.38;55.38;98994.50;7248289;40;21284;31
2023/06/07 23:17:19;;;;;;;6.00;4.97;;;;;;;21.36;55.18;98991.16;7275534;39;20263;31
2023/06/07 23:22:51;;;;;;;6.60;5.60;;;;;;;21.34;55.55;98987.81;7337342;39;20312;31
2023/06/07 23:28:25;;;;;;;8.33;5.60;;;;;;;21.18;55.82;98988.56;7228621;40;21245;31
2023/06/07 23:34:01;;;;;;;6.12;5.55;;;;;;;21.14;56.32;98987.37;7256324;40;20237;31
2023/06/07 23:39:19;;;;;;;6.50;5.90;;;;;;;21.08;55.86;98982.81;7180273;40;21257;31
2023/06/07 23:44:52;;;;;;;6.00;5.40;;;;;;;21.07;55.65;98973.75;7171118;40;21224;31
2023/06/07 23:50:26;;;;;;;6.07;5.43;;;;;;;21.18;55.59;98971.28;7224657;40;20380;31
2023/06/07 23:56:02;;;;;;;6.12;5.62;;;;;;;21.09;56.48;98965.31;7224628;40;21332;31
